Arlington Heights, Ohio
Current Conditions -  °F | °C
As of 12:53 PM on Tuesday 21 Oct 2014 (Local Time) from KHAO Reporting Station
Overcast Overcast  
Wind Chill: 12°   Ceiling: 5000
Heat Index: 12°   Visibility: 10mi
Dew Point:   Wind: 13mph
Humidity: 66%   Direction: 320°NW
Pressure: 30.06"   Gusts: NA
Location:  39.236°N, 84.4599°W
Report Text: KHAO 211653Z AUTO 32011KT 10SM SCT034 OVC050 12/06 A3006 RMK AO2 SLP179 T01170056
Loading
Personal Weather Stations






























Interactive Weather Map
Tropical Storm Tracking
New forecast layout! Learn more

10-Day Weather Forecast

Advertisements
Track Severe Weather on mobile